Pineola, North Carolina
Current Conditions -  °F | °C
As of 10:15 PM on Monday 20 Oct 2014 (Local Time) from KTNB Reporting Station
Scattered Clouds Scattered Clouds  
Wind Chill: 51°   Ceiling: Unl
Heat Index: 51°   Visibility: 10mi
Dew Point: 46°   Wind: 3mph
Humidity: 81%   Direction: 280°W
Pressure: 30.04"   Gusts: NA
Location:  36.03°N, 81.89°W
Report Text: KTNB 210215Z AUTO 28003KT 10SM SCT080 11/08 A3004 RMK AO2 T01070075
Loading
Personal Weather Stations






























Interactive Weather Map
Tropical Storm Tracking
New forecast layout! Learn more

10-Day Weather Forecast

Advertisements
Track Severe Weather on mobile